createdAt,value
2023-02-19T00:01:42.804Z,6.76
2023-02-19T00:04:17.286Z,7.43
2023-02-19T00:06:44.157Z,6.88
2023-02-19T00:09:11.653Z,7.01
2023-02-19T00:11:38.345Z,6.64
2023-02-19T00:14:05.001Z,6.55
2023-02-19T00:16:33.423Z,6.83
2023-02-19T00:19:00.696Z,7.02
2023-02-19T00:21:27.345Z,6.82
2023-02-19T00:23:58.699Z,6.91
2023-02-19T00:26:25.406Z,6.96
2023-02-19T00:28:52.656Z,7.24
2023-02-19T00:31:23.793Z,6.93
2023-02-19T00:33:55.451Z,7.40
2023-02-19T00:36:22.651Z,6.93
2023-02-19T00:38:49.294Z,6.92
2023-02-19T00:41:16.508Z,6.78
2023-02-19T00:43:43.195Z,6.88
2023-02-19T00:46:10.247Z,6.88
2023-02-19T00:48:37.092Z,7.05
2023-02-19T00:51:03.957Z,7.13
2023-02-19T00:53:30.633Z,7.06
2023-02-19T00:55:57.312Z,6.81
2023-02-19T00:58:24.785Z,7.14
2023-02-19T01:00:52.362Z,7.88
2023-02-19T01:03:18.995Z,9.06
2023-02-19T01:05:45.709Z,9.61
2023-02-19T01:08:12.374Z,9.35
2023-02-19T01:10:39.028Z,9.84
2023-02-19T01:13:05.688Z,9.84
2023-02-19T01:15:33.270Z,8.31
2023-02-19T01:17:59.935Z,7.78
2023-02-19T01:20:26.693Z,7.61
2023-02-19T01:22:53.332Z,7.56
2023-02-19T01:25:20.120Z,7.65
2023-02-19T01:27:46.818Z,7.50
2023-02-19T01:30:13.525Z,7.74
2023-02-19T01:32:40.324Z,7.22
2023-02-19T01:35:07.162Z,7.49
2023-02-19T01:37:33.772Z,7.62
2023-02-19T01:40:00.432Z,8.17
2023-02-19T01:42:27.084Z,8.15
2023-02-19T01:45:23.757Z,7.98
2023-02-19T01:47:59.063Z,8.03
2023-02-19T01:50:27.363Z,7.77
2023-02-19T01:52:54.025Z,8.01
2023-02-19T01:55:20.690Z,7.77
2023-02-19T01:57:47.920Z,8.37
2023-02-19T02:00:16.387Z,8.56
2023-02-19T02:02:43.769Z,8.07
2023-02-19T02:05:13.649Z,7.59
2023-02-19T02:07:40.283Z,7.21
2023-02-19T02:10:07.125Z,6.57
2023-02-19T02:12:33.754Z,6.81
2023-02-19T02:15:00.404Z,7.04
2023-02-19T02:17:30.242Z,6.57
2023-02-19T02:20:11.877Z,5.79
2023-02-19T02:22:42.825Z,5.95
2023-02-19T02:25:37.256Z,5.94
2023-02-19T02:28:28.124Z,6.00
2023-02-19T02:30:56.433Z,6.34
2023-02-19T02:33:31.591Z,6.25
2023-02-19T02:36:00.898Z,5.47
2023-02-19T02:38:29.505Z,5.62
2023-02-19T02:40:56.134Z,5.99
2023-02-19T02:43:22.868Z,5.68
2023-02-19T02:45:49.555Z,5.54
2023-02-19T02:48:17.585Z,5.73
2023-02-19T02:50:56.039Z,5.47
2023-02-19T02:53:29.283Z,5.63
2023-02-19T02:55:55.953Z,5.35
2023-02-19T02:58:23.348Z,5.29
2023-02-19T03:00:53.599Z,5.40
2023-02-19T03:03:21.494Z,5.55
2023-02-19T03:05:49.511Z,5.66
2023-02-19T03:08:18.977Z,5.27
2023-02-19T03:11:18.747Z,5.57
2023-02-19T03:13:45.402Z,5.87
2023-02-19T03:16:17.937Z,5.49
2023-02-19T03:18:45.831Z,6.04
2023-02-19T03:21:12.706Z,6.22
2023-02-19T03:23:39.526Z,6.28
2023-02-19T03:26:06.195Z,6.13
2023-02-19T03:28:33.280Z,6.14
2023-02-19T03:30:59.996Z,6.08
2023-02-19T03:33:27.329Z,6.53
2023-02-19T03:35:57.043Z,6.74
2023-02-19T03:38:27.047Z,5.98
2023-02-19T03:41:13.667Z,5.79
2023-02-19T03:44:15.356Z,5.71
2023-02-19T03:46:54.184Z,6.01
2023-02-19T03:49:27.095Z,6.11
2023-02-19T03:52:08.658Z,5.64
2023-02-19T03:54:41.482Z,5.35
2023-02-19T03:57:35.200Z,5.83
2023-02-19T04:00:18.377Z,5.78
2023-02-19T04:02:50.449Z,5.65
2023-02-19T04:05:19.128Z,5.99
2023-02-19T04:07:47.875Z,6.07
2023-02-19T04:10:14.965Z,6.08
2023-02-19T04:12:43.827Z,5.98
2023-02-19T04:15:12.504Z,5.84
2023-02-19T04:17:41.430Z,5.93
2023-02-19T04:20:09.634Z,5.98
2023-02-19T04:22:37.227Z,5.62
2023-02-19T04:25:03.958Z,5.55
2023-02-19T04:27:30.612Z,5.54
2023-02-19T04:29:57.626Z,5.67
2023-02-19T04:32:24.278Z,5.49
2023-02-19T04:34:52.831Z,5.65
2023-02-19T04:37:20.664Z,5.59
2023-02-19T04:39:47.338Z,5.89
2023-02-19T04:42:14.018Z,6.38
2023-02-19T04:44:40.753Z,6.64
2023-02-19T04:47:07.574Z,6.23
2023-02-19T04:49:34.195Z,6.12
2023-02-19T04:52:00.832Z,6.03
2023-02-19T04:54:27.947Z,5.92
2023-02-19T04:56:55.034Z,5.71
2023-02-19T04:59:21.752Z,5.49
2023-02-19T05:01:48.438Z,5.72
2023-02-19T05:04:15.140Z,5.72
2023-02-19T05:06:41.785Z,5.63
2023-02-19T05:09:09.509Z,5.38
2023-02-19T05:11:36.170Z,5.38
2023-02-19T05:14:02.816Z,5.49
2023-02-19T05:16:29.471Z,5.54
2023-02-19T05:18:56.104Z,5.28
2023-02-19T05:21:23.466Z,5.47
2023-02-19T05:23:51.046Z,5.38
2023-02-19T05:26:19.325Z,5.36
2023-02-19T05:28:46.530Z,5.05
2023-02-19T05:31:14.228Z,5.90
2023-02-19T05:33:41.215Z,5.90
2023-02-19T05:36:09.722Z,5.80
2023-02-19T05:38:36.609Z,6.02
2023-02-19T05:41:13.723Z,5.76
2023-02-19T05:43:41.252Z,5.91
2023-02-19T05:46:07.902Z,5.92
2023-02-19T05:48:34.612Z,5.76
2023-02-19T05:51:05.443Z,5.55
2023-02-19T05:53:32.095Z,5.65
2023-02-19T05:55:58.720Z,5.75
2023-02-19T05:58:25.476Z,5.54
2023-02-19T06:00:52.237Z,5.33
2023-02-19T06:03:18.968Z,5.64
2023-02-19T06:05:45.596Z,5.49
2023-02-19T06:08:13.196Z,5.92
2023-02-19T06:10:39.892Z,5.43
2023-02-19T06:13:06.610Z,5.37
2023-02-19T06:15:33.394Z,5.59
2023-02-19T06:18:00.114Z,5.36
2023-02-19T06:20:26.772Z,5.04
2023-02-19T06:22:53.425Z,4.86
2023-02-19T06:25:20.200Z,5.13
2023-02-19T06:27:46.868Z,5.87
2023-02-19T06:30:13.563Z,6.16
2023-02-19T06:32:40.228Z,6.18
2023-02-19T06:35:07.033Z,6.22
2023-02-19T06:37:33.691Z,6.49
2023-02-19T06:40:00.338Z,6.42
2023-02-19T06:42:26.998Z,6.40
2023-02-19T06:44:53.682Z,6.37
2023-02-19T06:47:20.324Z,6.62
2023-02-19T06:49:46.963Z,6.33
2023-02-19T06:52:13.599Z,6.82
2023-02-19T06:54:41.347Z,7.06
2023-02-19T06:57:07.995Z,6.71
2023-02-19T06:59:34.661Z,6.44
2023-02-19T07:02:02.166Z,6.54
2023-02-19T07:04:28.986Z,6.57
2023-02-19T07:06:55.700Z,6.60
2023-02-19T07:09:22.351Z,6.47
2023-02-19T07:11:49.004Z,6.30
2023-02-19T07:14:16.166Z,6.02
2023-02-19T07:16:43.244Z,6.36
2023-02-19T07:19:09.945Z,6.46
2023-02-19T07:21:36.590Z,6.55
2023-02-19T07:24:04.000Z,6.95
2023-02-19T07:26:30.657Z,6.10
2023-02-19T07:28:57.298Z,6.08
2023-02-19T07:31:24.892Z,5.93
2023-02-19T07:33:51.632Z,5.73
2023-02-19T07:36:18.462Z,5.77
2023-02-19T07:38:45.156Z,5.88
2023-02-19T07:41:12.191Z,6.36
2023-02-19T07:43:39.206Z,7.72
2023-02-19T07:46:06.980Z,8.15
2023-02-19T07:48:35.023Z,7.13
2023-02-19T07:51:01.902Z,6.75
2023-02-19T07:53:28.576Z,6.44
2023-02-19T07:55:59.221Z,6.74
2023-02-19T07:58:25.927Z,6.18
2023-02-19T08:00:52.571Z,6.66
2023-02-19T08:03:19.498Z,6.74
2023-02-19T08:05:46.156Z,6.33
2023-02-19T08:08:13.836Z,6.46
2023-02-19T08:10:40.624Z,6.66
2023-02-19T08:13:09.088Z,6.36
2023-02-19T08:15:35.725Z,6.23
2023-02-19T08:18:02.349Z,6.56
2023-02-19T08:20:28.986Z,6.62
2023-02-19T08:22:55.677Z,6.52
2023-02-19T08:25:22.330Z,6.70
2023-02-19T08:27:48.962Z,6.84
2023-02-19T08:30:15.621Z,8.65
2023-02-19T08:32:42.242Z,7.10
2023-02-19T08:35:08.859Z,6.66
2023-02-19T08:37:35.489Z,7.10
2023-02-19T08:40:02.132Z,6.55
2023-02-19T08:42:29.196Z,6.32
2023-02-19T08:44:55.877Z,6.34
2023-02-19T08:47:22.520Z,6.06
2023-02-19T08:49:49.176Z,6.19
2023-02-19T08:52:15.839Z,5.80
2023-02-19T08:54:42.465Z,6.34
2023-02-19T08:57:09.139Z,5.93
2023-02-19T08:59:35.800Z,6.19
2023-02-19T09:02:02.462Z,6.36
2023-02-19T09:04:29.537Z,5.98
2023-02-19T09:06:56.283Z,6.36
2023-02-19T09:09:23.089Z,6.57
2023-02-19T09:11:49.791Z,10.59
2023-02-19T09:14:16.448Z,6.73
2023-02-19T09:16:43.136Z,6.91
2023-02-19T09:19:09.765Z,6.18
2023-02-19T09:21:36.401Z,6.21
2023-02-19T09:24:03.086Z,5.98
2023-02-19T09:26:29.709Z,6.30
2023-02-19T09:28:56.351Z,6.03
2023-02-19T09:31:23.114Z,5.53
2023-02-19T09:33:49.801Z,6.03
2023-02-19T09:36:16.563Z,6.54
2023-02-19T09:38:43.220Z,7.05
2023-02-19T09:41:29.874Z,7.11
2023-02-19T09:43:58.231Z,6.79
2023-02-19T09:46:27.507Z,6.23
2023-02-19T09:48:54.215Z,6.09
2023-02-19T09:51:20.872Z,5.91
2023-02-19T09:53:48.356Z,5.96
2023-02-19T09:56:14.984Z,6.01
2023-02-19T09:58:50.540Z,5.47
2023-02-19T10:01:17.222Z,5.44
2023-02-19T10:03:45.222Z,5.65
2023-02-19T10:06:25.111Z,5.45
2023-02-19T10:09:14.479Z,5.56
2023-02-19T10:11:41.122Z,5.73
2023-02-19T10:14:12.068Z,5.77
2023-02-19T10:16:40.362Z,5.60
2023-02-19T10:19:10.436Z,5.84
2023-02-19T10:21:37.070Z,6.42
2023-02-19T10:24:04.371Z,5.83
2023-02-19T10:26:31.026Z,6.11
2023-02-19T10:28:57.681Z,6.12
2023-02-19T10:31:25.048Z,6.38
2023-02-19T10:33:56.251Z,6.58
2023-02-19T10:36:31.908Z,6.36
2023-02-19T10:38:59.403Z,6.13
2023-02-19T10:41:26.343Z,6.23
2023-02-19T10:43:54.402Z,6.56
2023-02-19T10:46:22.997Z,6.86
2023-02-19T10:49:00.368Z,6.77
2023-02-19T10:51:34.689Z,6.89
2023-02-19T10:54:18.007Z,7.20
2023-02-19T10:56:44.749Z,6.98
2023-02-19T10:59:28.287Z,6.97
2023-02-19T11:01:59.045Z,7.10
2023-02-19T11:04:26.763Z,7.30
2023-02-19T11:06:53.456Z,6.71
2023-02-19T11:09:37.409Z,7.23
2023-02-19T11:12:04.219Z,7.04
2023-02-19T11:14:31.315Z,6.73
2023-02-19T11:16:58.551Z,7.11
2023-02-19T11:19:26.531Z,6.84
2023-02-19T11:21:53.196Z,7.26
2023-02-19T11:24:29.236Z,7.26
2023-02-19T11:26:56.010Z,7.21
2023-02-19T11:29:23.759Z,7.44
2023-02-19T11:31:51.146Z,7.42
2023-02-19T11:34:18.648Z,7.31
2023-02-19T11:36:45.294Z,7.64
2023-02-19T11:39:20.116Z,7.81
2023-02-19T11:42:11.706Z,7.58
2023-02-19T11:44:49.465Z,7.28
2023-02-19T11:48:10.764Z,7.14
2023-02-19T11:50:53.011Z,7.63
2023-02-19T11:53:31.427Z,7.24
2023-02-19T11:56:12.303Z,7.68
2023-02-19T11:59:07.469Z,7.25
2023-02-19T12:01:52.375Z,7.40
2023-02-19T12:04:55.556Z,7.60
2023-02-19T12:07:52.140Z,7.40
2023-02-19T12:10:54.105Z,7.57
2023-02-19T12:13:44.892Z,7.64
2023-02-19T12:16:29.200Z,7.72
2023-02-19T12:19:12.118Z,7.74
2023-02-19T12:21:53.837Z,7.79
2023-02-19T12:24:39.014Z,7.67
2023-02-19T12:27:18.372Z,7.70
2023-02-19T12:29:57.085Z,7.98
2023-02-19T12:33:00.686Z,7.89
2023-02-19T12:35:55.206Z,7.69
2023-02-19T12:38:25.940Z,7.85
2023-02-19T12:41:20.404Z,8.16
2023-02-19T12:44:01.685Z,6.44
2023-02-19T12:46:32.076Z,7.22
2023-02-19T12:49:02.059Z,7.23
2023-02-19T12:51:42.052Z,7.76
2023-02-19T12:54:11.518Z,6.75
2023-02-19T12:56:46.783Z,6.96
2023-02-19T12:59:40.341Z,6.40
2023-02-19T13:02:19.020Z,5.99
2023-02-19T13:05:06.384Z,5.12
2023-02-19T13:07:38.417Z,5.38
2023-02-19T13:10:11.129Z,4.69
2023-02-19T13:12:39.286Z,4.36
2023-02-19T13:15:31.632Z,4.36
2023-02-19T13:17:59.877Z,5.02
2023-02-19T13:20:39.047Z,3.94
2023-02-19T13:23:21.299Z,3.41
2023-02-19T13:26:06.114Z,3.78
2023-02-19T13:28:39.063Z,4.06
2023-02-19T13:31:35.049Z,3.98
2023-02-19T13:34:20.536Z,4.02
2023-02-19T13:36:47.152Z,4.03
2023-02-19T13:41:56.293Z,3.67
2023-02-19T13:44:30.308Z,3.91
2023-02-19T13:46:56.963Z,3.75
2023-02-19T13:49:30.974Z,2.95
2023-02-19T13:52:03.589Z,2.94
2023-02-19T13:54:33.931Z,3.17
2023-02-19T13:57:22.858Z,3.30
2023-02-19T13:59:50.160Z,2.57
2023-02-19T14:02:22.747Z,2.44
2023-02-19T14:04:54.237Z,2.77
2023-02-19T14:07:28.363Z,2.62
2023-02-19T14:09:55.016Z,2.50
2023-02-19T14:12:24.506Z,2.35
2023-02-19T14:14:54.868Z,2.96
2023-02-19T14:17:42.137Z,2.78
2023-02-19T14:20:08.647Z,2.54
2023-02-19T14:22:47.157Z,2.39
2023-02-19T14:25:28.894Z,4.04
2023-02-19T14:28:00.837Z,3.91
2023-02-19T14:30:27.528Z,4.36
2023-02-19T14:33:02.762Z,4.92
2023-02-19T14:35:43.926Z,4.93
2023-02-19T14:38:21.800Z,5.13
2023-02-19T14:40:48.455Z,4.54
2023-02-19T14:43:16.280Z,4.62
2023-02-19T14:45:47.807Z,3.62
2023-02-19T14:48:26.765Z,2.65
2023-02-19T14:50:56.762Z,3.43
2023-02-19T14:53:23.411Z,3.70
2023-02-19T14:55:50.058Z,3.64
2023-02-19T14:58:28.049Z,2.72
2023-02-19T15:00:54.749Z,2.78
2023-02-19T15:03:37.299Z,2.92
2023-02-19T15:06:14.029Z,3.12
2023-02-19T15:08:44.055Z,2.93
2023-02-19T15:11:21.891Z,3.49
2023-02-19T15:13:53.972Z,3.50
2023-02-19T15:16:21.437Z,4.23
2023-02-19T15:18:48.458Z,4.48
2023-02-19T15:21:27.813Z,4.64
2023-02-19T15:23:58.608Z,5.33
2023-02-19T15:26:33.443Z,4.77
2023-02-19T15:29:11.014Z,4.48
2023-02-19T15:31:44.205Z,3.09
2023-02-19T15:34:19.075Z,2.61
2023-02-19T15:36:45.772Z,2.02
2023-02-19T15:39:22.930Z,1.89
2023-02-19T15:41:59.115Z,1.86
2023-02-19T15:44:45.312Z,1.89
2023-02-19T15:47:20.897Z,1.91
2023-02-19T15:50:07.564Z,2.05
2023-02-19T15:52:50.603Z,1.91
2023-02-19T15:55:23.164Z,1.77
2023-02-19T15:57:57.850Z,1.81
2023-02-19T16:00:32.238Z,1.43
2023-02-19T16:02:58.960Z,1.67
2023-02-19T16:05:26.850Z,1.88
2023-02-19T16:08:12.207Z,1.91
2023-02-19T16:10:38.995Z,1.82
2023-02-19T16:13:05.869Z,1.74
2023-02-19T16:15:32.703Z,1.56
2023-02-19T16:17:59.411Z,1.79
2023-02-19T16:20:30.153Z,1.81
2023-02-19T16:23:00.537Z,1.68
2023-02-19T16:25:37.778Z,1.86
2023-02-19T16:28:11.304Z,1.63
2023-02-19T16:30:39.470Z,1.70
2023-02-19T16:33:31.745Z,1.79
2023-02-19T16:35:58.535Z,1.88
2023-02-19T16:38:25.186Z,1.84
2023-02-19T16:40:51.685Z,1.83
2023-02-19T16:43:25.212Z,1.86
2023-02-19T16:45:51.861Z,1.34
2023-02-19T16:48:18.625Z,1.24
2023-02-19T16:50:45.258Z,1.08
2023-02-19T16:53:18.227Z,1.00
2023-02-19T16:55:45.900Z,0.91
2023-02-19T16:58:12.560Z,0.92
2023-02-19T17:00:39.260Z,1.15
2023-02-19T17:03:16.281Z,1.15
2023-02-19T17:05:42.927Z,1.00
2023-02-19T17:08:30.985Z,1.03
2023-02-19T17:10:58.238Z,1.52
2023-02-19T17:13:24.883Z,2.11
2023-02-19T17:15:51.702Z,1.46
2023-02-19T17:18:18.317Z,1.07
2023-02-19T17:20:47.893Z,1.03
2023-02-19T17:23:14.759Z,0.98
2023-02-19T17:25:41.415Z,1.16
2023-02-19T17:28:08.162Z,1.16
2023-02-19T17:30:39.893Z,1.08
2023-02-19T17:33:06.757Z,1.26
2023-02-19T17:35:33.528Z,1.18
2023-02-19T17:38:01.043Z,1.20
2023-02-19T17:40:33.532Z,1.25
2023-02-19T17:43:02.224Z,1.12
2023-02-19T17:45:28.889Z,1.24
2023-02-19T17:47:55.938Z,1.17
2023-02-19T17:50:25.042Z,1.42
2023-02-19T17:52:52.650Z,1.23
2023-02-19T17:55:20.281Z,1.23
2023-02-19T17:57:47.588Z,1.23
2023-02-19T18:00:22.397Z,1.30
2023-02-19T18:02:49.070Z,1.88
2023-02-19T18:05:15.794Z,1.53
2023-02-19T18:07:43.646Z,1.50
2023-02-19T18:10:10.469Z,1.55
2023-02-19T18:12:37.828Z,1.89
2023-02-19T18:15:07.353Z,1.88
2023-02-19T18:17:34.353Z,1.93
2023-02-19T18:20:01.538Z,2.11
2023-02-19T18:22:28.212Z,2.32
2023-02-19T18:24:55.102Z,2.93
2023-02-19T18:27:21.835Z,2.14
2023-02-19T18:29:52.065Z,1.86
2023-02-19T18:32:21.065Z,1.71
2023-02-19T18:34:52.703Z,1.62
2023-02-19T18:37:19.730Z,1.73
2023-02-19T18:39:46.913Z,1.67
2023-02-19T18:42:13.548Z,1.84
2023-02-19T18:44:40.205Z,1.83
2023-02-19T18:47:07.161Z,1.99
2023-02-19T18:49:33.842Z,1.81
2023-02-19T18:52:00.486Z,1.95
2023-02-19T18:54:30.885Z,1.77
2023-02-19T18:56:58.190Z,1.82
2023-02-19T18:59:25.826Z,1.76
2023-02-19T19:01:52.574Z,1.81
2023-02-19T19:04:19.243Z,1.77
2023-02-19T19:06:46.689Z,1.73
2023-02-19T19:09:13.324Z,1.80
2023-02-19T19:11:39.991Z,1.87
2023-02-19T19:14:07.033Z,1.89
2023-02-19T19:16:33.648Z,2.01
2023-02-19T19:19:00.596Z,1.98
2023-02-19T19:21:27.219Z,1.97
2023-02-19T19:23:54.122Z,2.01
2023-02-19T19:26:20.886Z,1.95
2023-02-19T19:28:47.540Z,2.04
2023-02-19T19:31:15.534Z,2.07
2023-02-19T19:33:42.338Z,1.95
2023-02-19T19:36:09.522Z,2.11
2023-02-19T19:38:36.209Z,2.07
2023-02-19T19:41:02.968Z,1.96
2023-02-19T19:43:29.853Z,1.84
2023-02-19T19:45:56.597Z,1.78
2023-02-19T19:48:23.751Z,1.83
2023-02-19T19:50:50.438Z,2.05
2023-02-19T19:53:17.133Z,1.97
2023-02-19T19:55:43.804Z,1.95
2023-02-19T19:58:11.150Z,1.85
2023-02-19T20:00:37.814Z,1.87
2023-02-19T20:03:04.461Z,1.80
2023-02-19T20:05:31.103Z,1.82
2023-02-19T20:07:57.761Z,1.81
2023-02-19T20:10:24.403Z,1.78
2023-02-19T20:12:51.036Z,1.58
2023-02-19T20:15:21.228Z,1.81
2023-02-19T20:17:47.944Z,1.84
2023-02-19T20:20:16.910Z,1.98
2023-02-19T20:22:43.781Z,1.81
2023-02-19T20:25:10.530Z,1.53
2023-02-19T20:27:37.980Z,1.84
2023-02-19T20:30:05.066Z,1.90
2023-02-19T20:32:31.743Z,1.83
2023-02-19T20:34:58.388Z,1.81
2023-02-19T20:37:25.052Z,2.04
2023-02-19T20:39:51.935Z,1.78
2023-02-19T20:42:18.634Z,1.79
2023-02-19T20:44:45.302Z,1.94
2023-02-19T20:47:11.988Z,1.91
2023-02-19T20:49:39.844Z,1.89
2023-02-19T20:52:08.108Z,1.65
2023-02-19T20:54:35.092Z,1.80
2023-02-19T20:57:03.038Z,1.85
2023-02-19T20:59:30.849Z,1.98
2023-02-19T21:01:58.408Z,1.84
2023-02-19T21:04:25.078Z,2.03
2023-02-19T21:06:51.697Z,1.89
2023-02-19T21:09:23.389Z,1.97
2023-02-19T21:11:50.367Z,1.90
2023-02-19T21:14:17.255Z,1.74
2023-02-19T21:16:43.880Z,1.84
2023-02-19T21:19:10.801Z,1.79
2023-02-19T21:21:37.441Z,1.94
2023-02-19T21:24:04.182Z,1.94
2023-02-19T21:26:38.075Z,1.89
2023-02-19T21:29:05.233Z,2.02
2023-02-19T21:31:39.898Z,2.09
2023-02-19T21:34:10.114Z,1.97
2023-02-19T21:36:36.813Z,2.09
2023-02-19T21:39:04.373Z,1.94
2023-02-19T21:41:31.030Z,2.04
2023-02-19T21:43:57.696Z,2.40
2023-02-19T21:46:24.517Z,2.22
2023-02-19T21:48:51.957Z,2.32
2023-02-19T21:51:20.045Z,2.27
2023-02-19T21:53:47.441Z,2.48
2023-02-19T21:56:23.856Z,2.01
2023-02-19T21:58:52.672Z,1.85
2023-02-19T22:01:31.050Z,1.92
2023-02-19T22:03:57.710Z,1.98
2023-02-19T22:06:26.491Z,2.15
2023-02-19T22:08:54.665Z,2.14
2023-02-19T22:11:21.336Z,1.84
2023-02-19T22:13:48.011Z,2.14
2023-02-19T22:16:15.085Z,2.21
2023-02-19T22:18:52.638Z,2.33
2023-02-19T22:21:19.609Z,2.09
2023-02-19T22:23:46.713Z,2.12
2023-02-19T22:26:30.043Z,2.10
2023-02-19T22:28:57.064Z,2.12
2023-02-19T22:31:24.833Z,2.16
2023-02-19T22:33:51.606Z,2.17
2023-02-19T22:36:20.533Z,2.27
2023-02-19T22:38:48.516Z,2.21
2023-02-19T22:41:15.599Z,2.14
2023-02-19T22:43:42.255Z,2.14
2023-02-19T22:46:16.841Z,2.30
2023-02-19T22:48:43.521Z,2.02
2023-02-19T22:51:21.978Z,2.21
2023-02-19T22:53:52.907Z,2.01
2023-02-19T22:56:20.256Z,2.13
2023-02-19T22:58:46.978Z,2.03
2023-02-19T23:01:14.259Z,2.08
2023-02-19T23:03:46.556Z,1.94
2023-02-19T23:06:14.050Z,2.01
2023-02-19T23:08:41.433Z,1.93
2023-02-19T23:11:08.346Z,1.81
2023-02-19T23:13:35.012Z,2.05
2023-02-19T23:16:01.652Z,2.07
2023-02-19T23:18:28.290Z,1.99
2023-02-19T23:20:54.918Z,2.19
2023-02-19T23:23:21.570Z,2.09
2023-02-19T23:25:48.193Z,1.97
2023-02-19T23:28:14.843Z,1.94
2023-02-19T23:30:41.514Z,1.94
2023-02-19T23:33:08.259Z,2.11
2023-02-19T23:35:34.872Z,2.01
2023-02-19T23:38:01.525Z,1.90
2023-02-19T23:40:28.167Z,2.02
2023-02-19T23:42:54.809Z,2.02
2023-02-19T23:45:21.426Z,2.01
2023-02-19T23:47:48.063Z,2.10
2023-02-19T23:50:15.657Z,2.16
2023-02-19T23:52:42.300Z,1.95
2023-02-19T23:55:08.932Z,1.94
2023-02-19T23:57:35.562Z,1.95
